EGNS - Ronaldsway Airport
Distance from station: E 5mi, 14km
Updated: 12/14/2017 10:20pm
Few Clouds
Few Clouds
 Wind from varies
Wind: varies 3 mph , 6 km/h
Temperature: 41°F , 5°C
Dew Point: 34°F , 1°C
Humidity: 76%
Barometer: 29.47 inHg , 998 hPa
Clouds: Few Clouds
Visibility: 6 miles , 10 km
Cloud details: Few Clouds 3000 ft
2017/12/15 06:20 EGNS 150620Z VRB03KT 9999 FEW030 05/01 Q0998 NOSIG